Terminal Aerodrome Forecast
Issued by NWS Grand Forks, ND

Home | Current Version | Previous Version | Text Only | Print | Product List | Glossary On
Versions: 1 2 3 4 5 6 7 8 9 10 11 12 13 14 15 16 17 18 19 20 21 22 23 24
923
FTUS43 KFGF 231346 AAD
TAFGFK
TAF AMD
KGFK 231346Z 2314/2412 21004KT P6SM OVC015
     FM231700 17010KT P6SM SCT015
     FM232000 18011KT P6SM SCT150
     FM240500 21012KT P6SM SCT200
     FM240700 21012KT P6SM BKN110
     FM241100 24011KT P6SM BKN035=

USA.gov is the U.S. government's official web portal to all federal, state and local government web resources and services.